sensor_id;sensor_type;location;lat;lon;timestamp;temperature;humidity
21275;DHT22;36472;52.170;20.884;2023-07-13T00:02:26;34.00;53.20
21275;DHT22;36472;52.170;20.884;2023-07-13T00:04:55;34.00;53.10
21275;DHT22;36472;52.170;20.884;2023-07-13T00:07:24;34.00;53.20
21275;DHT22;36472;52.170;20.884;2023-07-13T00:09:55;34.00;53.20
21275;DHT22;36472;52.170;20.884;2023-07-13T00:12:25;34.00;53.30
21275;DHT22;36472;52.170;20.884;2023-07-13T00:14:57;34.00;53.20
21275;DHT22;36472;52.170;20.884;2023-07-13T00:17:28;34.00;53.40
21275;DHT22;36472;52.170;20.884;2023-07-13T00:19:58;34.00;53.60
21275;DHT22;36472;52.170;20.884;2023-07-13T00:22:27;34.00;53.70
21275;DHT22;36472;52.170;20.884;2023-07-13T00:24:57;34.00;53.50
21275;DHT22;36472;52.170;20.884;2023-07-13T00:27:26;33.90;53.40
21275;DHT22;36472;52.170;20.884;2023-07-13T00:29:57;33.90;53.40
21275;DHT22;36472;52.170;20.884;2023-07-13T00:32:26;33.90;53.40
21275;DHT22;36472;52.170;20.884;2023-07-13T00:34:56;33.90;53.50
21275;DHT22;36472;52.170;20.884;2023-07-13T00:37:27;33.90;53.50
21275;DHT22;36472;52.170;20.884;2023-07-13T00:39:58;33.90;53.50
21275;DHT22;36472;52.170;20.884;2023-07-13T00:42:27;33.90;53.50
21275;DHT22;36472;52.170;20.884;2023-07-13T00:45:02;33.80;53.40
21275;DHT22;36472;52.170;20.884;2023-07-13T00:47:32;33.90;53.50
21275;DHT22;36472;52.170;20.884;2023-07-13T00:50:03;33.90;53.50
21275;DHT22;36472;52.170;20.884;2023-07-13T00:52:36;33.90;53.50
21275;DHT22;36472;52.170;20.884;2023-07-13T00:55:11;33.90;53.50
21275;DHT22;36472;52.170;20.884;2023-07-13T00:57:42;33.90;53.40
21275;DHT22;36472;52.170;20.884;2023-07-13T01:00:13;33.90;53.50
21275;DHT22;36472;52.170;20.884;2023-07-13T01:02:45;33.90;53.50
21275;DHT22;36472;52.170;20.884;2023-07-13T01:05:16;33.90;53.50
21275;DHT22;36472;52.170;20.884;2023-07-13T01:07:49;33.90;53.50
21275;DHT22;36472;52.170;20.884;2023-07-13T01:10:23;33.80;53.40
21275;DHT22;36472;52.170;20.884;2023-07-13T01:12:53;33.90;53.50
21275;DHT22;36472;52.170;20.884;2023-07-13T01:15:47;33.80;53.40
21275;DHT22;36472;52.170;20.884;2023-07-13T01:18:21;33.80;53.40
21275;DHT22;36472;52.170;20.884;2023-07-13T01:20:58;33.80;53.30
21275;DHT22;36472;52.170;20.884;2023-07-13T01:23:30;33.80;53.30
21275;DHT22;36472;52.170;20.884;2023-07-13T01:26:02;33.90;53.40
21275;DHT22;36472;52.170;20.884;2023-07-13T01:28:31;33.90;53.50
21275;DHT22;36472;52.170;20.884;2023-07-13T01:31:04;33.80;53.50
21275;DHT22;36472;52.170;20.884;2023-07-13T01:33:33;33.90;53.40
21275;DHT22;36472;52.170;20.884;2023-07-13T01:36:04;33.90;53.40
21275;DHT22;36472;52.170;20.884;2023-07-13T01:38:35;33.90;53.50
21275;DHT22;36472;52.170;20.884;2023-07-13T01:41:05;33.80;53.50
21275;DHT22;36472;52.170;20.884;2023-07-13T01:43:34;33.80;53.60
21275;DHT22;36472;52.170;20.884;2023-07-13T01:46:03;33.80;53.50
21275;DHT22;36472;52.170;20.884;2023-07-13T01:48:49;33.90;53.50
21275;DHT22;36472;52.170;20.884;2023-07-13T01:51:20;33.80;53.40
21275;DHT22;36472;52.170;20.884;2023-07-13T01:53:49;33.80;53.40
21275;DHT22;36472;52.170;20.884;2023-07-13T01:56:18;33.80;53.50
21275;DHT22;36472;52.170;20.884;2023-07-13T01:58:48;33.80;53.50
21275;DHT22;36472;52.170;20.884;2023-07-13T02:01:17;33.80;53.40
21275;DHT22;36472;52.170;20.884;2023-07-13T02:03:46;33.90;53.50
21275;DHT22;36472;52.170;20.884;2023-07-13T02:06:16;33.80;53.40
21275;DHT22;36472;52.170;20.884;2023-07-13T02:08:46;33.80;53.30
21275;DHT22;36472;52.170;20.884;2023-07-13T02:11:15;33.80;53.50
21275;DHT22;36472;52.170;20.884;2023-07-13T02:13:44;33.90;53.60
21275;DHT22;36472;52.170;20.884;2023-07-13T02:16:13;33.90;53.40
21275;DHT22;36472;52.170;20.884;2023-07-13T02:18:42;33.80;53.30
21275;DHT22;36472;52.170;20.884;2023-07-13T02:21:11;33.80;53.30
21275;DHT22;36472;52.170;20.884;2023-07-13T02:23:40;33.80;53.40
21275;DHT22;36472;52.170;20.884;2023-07-13T02:26:11;33.80;53.20
21275;DHT22;36472;52.170;20.884;2023-07-13T02:28:40;33.80;53.30
21275;DHT22;36472;52.170;20.884;2023-07-13T02:31:10;33.80;53.40
21275;DHT22;36472;52.170;20.884;2023-07-13T02:33:41;33.80;53.40
21275;DHT22;36472;52.170;20.884;2023-07-13T02:36:12;33.80;53.30
21275;DHT22;36472;52.170;20.884;2023-07-13T02:38:44;33.80;53.30
21275;DHT22;36472;52.170;20.884;2023-07-13T02:41:15;33.80;53.30
21275;DHT22;36472;52.170;20.884;2023-07-13T02:43:44;33.80;53.30
21275;DHT22;36472;52.170;20.884;2023-07-13T02:46:14;33.80;53.30
21275;DHT22;36472;52.170;20.884;2023-07-13T02:48:43;33.80;53.40
21275;DHT22;36472;52.170;20.884;2023-07-13T02:51:13;33.80;53.40
21275;DHT22;36472;52.170;20.884;2023-07-13T02:53:42;33.70;53.40
21275;DHT22;36472;52.170;20.884;2023-07-13T02:56:11;33.70;53.40
21275;DHT22;36472;52.170;20.884;2023-07-13T02:58:45;33.70;54.10
21275;DHT22;36472;52.170;20.884;2023-07-13T03:01:14;33.70;54.00
21275;DHT22;36472;52.170;20.884;2023-07-13T03:03:47;33.70;53.50
21275;DHT22;36472;52.170;20.884;2023-07-13T03:06:19;33.70;53.50
21275;DHT22;36472;52.170;20.884;2023-07-13T03:08:52;33.70;53.50
21275;DHT22;36472;52.170;20.884;2023-07-13T03:11:23;33.70;53.40
21275;DHT22;36472;52.170;20.884;2023-07-13T03:14:20;33.70;53.50
21275;DHT22;36472;52.170;20.884;2023-07-13T03:16:49;33.70;53.50
21275;DHT22;36472;52.170;20.884;2023-07-13T03:19:22;33.70;53.40
21275;DHT22;36472;52.170;20.884;2023-07-13T03:21:52;33.70;53.40
21275;DHT22;36472;52.170;20.884;2023-07-13T03:28:54;33.70;53.30
21275;DHT22;36472;52.170;20.884;2023-07-13T03:31:27;33.70;53.30
21275;DHT22;36472;52.170;20.884;2023-07-13T03:33:57;33.60;53.20
21275;DHT22;36472;52.170;20.884;2023-07-13T03:36:29;33.60;53.30
21275;DHT22;36472;52.170;20.884;2023-07-13T03:39:04;33.60;53.40
21275;DHT22;36472;52.170;20.884;2023-07-13T03:41:52;33.70;53.50
21275;DHT22;36472;52.170;20.884;2023-07-13T03:44:22;33.60;53.50
21275;DHT22;36472;52.170;20.884;2023-07-13T03:46:56;33.60;53.70
21275;DHT22;36472;52.170;20.884;2023-07-13T03:49:25;33.50;53.70
21275;DHT22;36472;52.170;20.884;2023-07-13T03:51:54;33.50;53.80
21275;DHT22;36472;52.170;20.884;2023-07-13T03:54:23;33.60;53.90
21275;DHT22;36472;52.170;20.884;2023-07-13T03:56:52;33.60;54.10
21275;DHT22;36472;52.170;20.884;2023-07-13T03:59:22;33.60;54.00
21275;DHT22;36472;52.170;20.884;2023-07-13T04:01:51;33.60;54.00
21275;DHT22;36472;52.170;20.884;2023-07-13T04:04:22;33.70;54.00
21275;DHT22;36472;52.170;20.884;2023-07-13T04:06:53;33.70;54.00
21275;DHT22;36472;52.170;20.884;2023-07-13T04:09:22;33.80;54.20
21275;DHT22;36472;52.170;20.884;2023-07-13T04:11:51;33.80;54.10
21275;DHT22;36472;52.170;20.884;2023-07-13T04:14:20;33.80;54.30
21275;DHT22;36472;52.170;20.884;2023-07-13T04:21:23;34.00;54.20
21275;DHT22;36472;52.170;20.884;2023-07-13T04:23:51;34.10;54.30
21275;DHT22;36472;52.170;20.884;2023-07-13T04:26:21;34.20;54.20
21275;DHT22;36472;52.170;20.884;2023-07-13T04:28:51;34.30;54.50
21275;DHT22;36472;52.170;20.884;2023-07-13T04:31:20;34.30;54.40
21275;DHT22;36472;52.170;20.884;2023-07-13T04:33:50;34.40;54.20
21275;DHT22;36472;52.170;20.884;2023-07-13T04:36:20;34.50;54.00
21275;DHT22;36472;52.170;20.884;2023-07-13T04:38:50;34.50;53.70
21275;DHT22;36472;52.170;20.884;2023-07-13T04:41:21;34.60;54.00
21275;DHT22;36472;52.170;20.884;2023-07-13T04:43:50;34.70;53.80
21275;DHT22;36472;52.170;20.884;2023-07-13T04:46:23;34.70;53.50
21275;DHT22;36472;52.170;20.884;2023-07-13T04:48:52;34.80;53.40
21275;DHT22;36472;52.170;20.884;2023-07-13T04:51:22;34.80;53.80
21275;DHT22;36472;52.170;20.884;2023-07-13T04:53:52;34.90;53.90
21275;DHT22;36472;52.170;20.884;2023-07-13T04:56:27;34.90;53.80
21275;DHT22;36472;52.170;20.884;2023-07-13T04:58:57;34.90;53.80
21275;DHT22;36472;52.170;20.884;2023-07-13T05:01:27;34.90;54.00
21275;DHT22;36472;52.170;20.884;2023-07-13T05:03:56;35.00;54.10
21275;DHT22;36472;52.170;20.884;2023-07-13T05:06:27;35.00;54.10
21275;DHT22;36472;52.170;20.884;2023-07-13T05:13:29;35.20;53.60
21275;DHT22;36472;52.170;20.884;2023-07-13T05:16:02;35.20;53.60
21275;DHT22;36472;52.170;20.884;2023-07-13T05:18:34;35.20;53.60
21275;DHT22;36472;52.170;20.884;2023-07-13T05:21:06;35.20;53.60
21275;DHT22;36472;52.170;20.884;2023-07-13T05:23:38;35.30;53.60
21275;DHT22;36472;52.170;20.884;2023-07-13T05:26:09;35.30;53.70
21275;DHT22;36472;52.170;20.884;2023-07-13T05:28:40;35.30;53.80
21275;DHT22;36472;52.170;20.884;2023-07-13T05:31:10;35.30;53.70
21275;DHT22;36472;52.170;20.884;2023-07-13T05:33:39;35.30;53.60
21275;DHT22;36472;52.170;20.884;2023-07-13T05:36:08;35.30;53.50
21275;DHT22;36472;52.170;20.884;2023-07-13T05:38:38;35.40;53.60
21275;DHT22;36472;52.170;20.884;2023-07-13T05:45:40;35.50;53.70
21275;DHT22;36472;52.170;20.884;2023-07-13T05:48:09;35.50;53.50
21275;DHT22;36472;52.170;20.884;2023-07-13T05:50:38;35.60;53.70
21275;DHT22;36472;52.170;20.884;2023-07-13T05:53:07;35.60;53.50
21275;DHT22;36472;52.170;20.884;2023-07-13T05:55:41;35.70;53.40
21275;DHT22;36472;52.170;20.884;2023-07-13T05:58:11;35.70;53.90
21275;DHT22;36472;52.170;20.884;2023-07-13T06:00:42;35.80;53.70
21275;DHT22;36472;52.170;20.884;2023-07-13T06:03:11;35.90;53.20
21275;DHT22;36472;52.170;20.884;2023-07-13T06:05:41;36.00;53.30
21275;DHT22;36472;52.170;20.884;2023-07-13T06:08:10;36.00;53.20
21275;DHT22;36472;52.170;20.884;2023-07-13T06:10:39;36.10;53.20
21275;DHT22;36472;52.170;20.884;2023-07-13T06:13:08;36.10;53.00
21275;DHT22;36472;52.170;20.884;2023-07-13T06:15:37;36.20;53.30
21275;DHT22;36472;52.170;20.884;2023-07-13T06:18:07;36.20;53.20
21275;DHT22;36472;52.170;20.884;2023-07-13T06:20:36;36.30;53.10
21275;DHT22;36472;52.170;20.884;2023-07-13T06:23:05;36.40;53.00
21275;DHT22;36472;52.170;20.884;2023-07-13T06:25:34;36.40;53.20
21275;DHT22;36472;52.170;20.884;2023-07-13T06:28:04;36.50;53.30
21275;DHT22;36472;52.170;20.884;2023-07-13T06:30:33;36.60;52.70
21275;DHT22;36472;52.170;20.884;2023-07-13T06:33:02;36.70;52.40
21275;DHT22;36472;52.170;20.884;2023-07-13T06:40:06;37.00;51.90
21275;DHT22;36472;52.170;20.884;2023-07-13T06:42:36;37.20;51.10
21275;DHT22;36472;52.170;20.884;2023-07-13T06:45:06;37.30;50.60
21275;DHT22;36472;52.170;20.884;2023-07-13T06:47:36;37.40;50.30
21275;DHT22;36472;52.170;20.884;2023-07-13T06:50:06;37.60;50.00
21275;DHT22;36472;52.170;20.884;2023-07-13T06:57:10;37.90;49.20
21275;DHT22;36472;52.170;20.884;2023-07-13T06:59:38;38.00;45.50
21275;DHT22;36472;52.170;20.884;2023-07-13T07:02:09;37.90;45.20
21275;DHT22;36472;52.170;20.884;2023-07-13T07:04:39;37.90;44.90
21275;DHT22;36472;52.170;20.884;2023-07-13T07:07:08;38.00;44.50
21275;DHT22;36472;52.170;20.884;2023-07-13T07:09:37;38.20;44.00
21275;DHT22;36472;52.170;20.884;2023-07-13T07:12:07;38.30;44.00
21275;DHT22;36472;52.170;20.884;2023-07-13T07:19:12;38.40;45.30
21275;DHT22;36472;52.170;20.884;2023-07-13T07:21:41;38.50;43.00
21275;DHT22;36472;52.170;20.884;2023-07-13T07:28:42;38.30;41.90
21275;DHT22;36472;52.170;20.884;2023-07-13T07:31:16;38.40;43.10
21275;DHT22;36472;52.170;20.884;2023-07-13T07:33:48;38.50;42.40
21275;DHT22;36472;52.170;20.884;2023-07-13T07:36:19;38.50;42.80
21275;DHT22;36472;52.170;20.884;2023-07-13T07:38:51;38.50;42.40
21275;DHT22;36472;52.170;20.884;2023-07-13T07:45:52;38.70;44.10
21275;DHT22;36472;52.170;20.884;2023-07-13T07:48:22;38.80;43.40
21275;DHT22;36472;52.170;20.884;2023-07-13T07:50:51;38.90;42.00
21275;DHT22;36472;52.170;20.884;2023-07-13T07:53:21;39.00;42.80
21275;DHT22;36472;52.170;20.884;2023-07-13T07:55:51;39.00;43.70
21275;DHT22;36472;52.170;20.884;2023-07-13T07:58:23;39.10;42.60
21275;DHT22;36472;52.170;20.884;2023-07-13T08:01:02;39.00;42.30
21275;DHT22;36472;52.170;20.884;2023-07-13T08:03:34;39.00;42.00
21275;DHT22;36472;52.170;20.884;2023-07-13T08:06:06;39.00;42.70
21275;DHT22;36472;52.170;20.884;2023-07-13T08:08:40;39.00;41.30
21275;DHT22;36472;52.170;20.884;2023-07-13T08:11:09;39.20;40.80
21275;DHT22;36472;52.170;20.884;2023-07-13T08:13:41;39.20;40.70
21275;DHT22;36472;52.170;20.884;2023-07-13T08:16:10;39.20;40.70
21275;DHT22;36472;52.170;20.884;2023-07-13T08:18:39;39.20;41.40
21275;DHT22;36472;52.170;20.884;2023-07-13T08:21:09;39.20;41.10
21275;DHT22;36472;52.170;20.884;2023-07-13T08:23:39;39.20;41.60
21275;DHT22;36472;52.170;20.884;2023-07-13T08:26:09;39.30;42.20
21275;DHT22;36472;52.170;20.884;2023-07-13T08:28:38;39.40;41.80
21275;DHT22;36472;52.170;20.884;2023-07-13T08:35:39;39.40;42.80
21275;DHT22;36472;52.170;20.884;2023-07-13T08:38:08;39.50;43.20
21275;DHT22;36472;52.170;20.884;2023-07-13T08:40:39;39.60;42.90
21275;DHT22;36472;52.170;20.884;2023-07-13T08:43:13;39.60;43.00
21275;DHT22;36472;52.170;20.884;2023-07-13T08:45:48;39.70;43.10
21275;DHT22;36472;52.170;20.884;2023-07-13T08:48:27;39.70;43.70
21275;DHT22;36472;52.170;20.884;2023-07-13T08:51:04;39.70;42.90
21275;DHT22;36472;52.170;20.884;2023-07-13T08:53:52;39.80;42.80
21275;DHT22;36472;52.170;20.884;2023-07-13T08:56:28;39.90;43.20
21275;DHT22;36472;52.170;20.884;2023-07-13T08:59:04;39.90;43.20
21275;DHT22;36472;52.170;20.884;2023-07-13T09:02:04;39.80;42.80
21275;DHT22;36472;52.170;20.884;2023-07-13T09:04:54;39.70;43.10
21275;DHT22;36472;52.170;20.884;2023-07-13T09:07:40;39.80;43.20
21275;DHT22;36472;52.170;20.884;2023-07-13T09:10:23;39.80;43.50
21275;DHT22;36472;52.170;20.884;2023-07-13T09:13:11;39.90;43.20
21275;DHT22;36472;52.170;20.884;2023-07-13T09:15:54;39.80;43.30
21275;DHT22;36472;52.170;20.884;2023-07-13T09:18:29;39.90;42.90
21275;DHT22;36472;52.170;20.884;2023-07-13T09:21:07;39.90;43.80
21275;DHT22;36472;52.170;20.884;2023-07-13T09:23:40;40.00;43.40
21275;DHT22;36472;52.170;20.884;2023-07-13T09:26:13;40.00;42.80
21275;DHT22;36472;52.170;20.884;2023-07-13T09:28:49;40.00;43.00
21275;DHT22;36472;52.170;20.884;2023-07-13T09:35:53;39.90;43.40
21275;DHT22;36472;52.170;20.884;2023-07-13T09:38:23;39.90;43.10
21275;DHT22;36472;52.170;20.884;2023-07-13T09:41:05;40.00;43.30
21275;DHT22;36472;52.170;20.884;2023-07-13T09:44:26;39.80;43.00
21275;DHT22;36472;52.170;20.884;2023-07-13T09:46:58;39.80;43.00
21275;DHT22;36472;52.170;20.884;2023-07-13T09:49:34;39.80;42.80
21275;DHT22;36472;52.170;20.884;2023-07-13T09:52:09;39.80;42.90
21275;DHT22;36472;52.170;20.884;2023-07-13T09:54:45;39.80;43.60
21275;DHT22;36472;52.170;20.884;2023-07-13T09:57:19;39.90;43.60
21275;DHT22;36472;52.170;20.884;2023-07-13T10:04:27;40.00;43.20
21275;DHT22;36472;52.170;20.884;2023-07-13T10:07:06;40.00;41.00
21275;DHT22;36472;52.170;20.884;2023-07-13T10:09:56;39.90;40.80
21275;DHT22;36472;52.170;20.884;2023-07-13T10:12:30;39.80;39.90
21275;DHT22;36472;52.170;20.884;2023-07-13T10:15:14;39.60;39.90
21275;DHT22;36472;52.170;20.884;2023-07-13T10:17:52;39.40;40.10
21275;DHT22;36472;52.170;20.884;2023-07-13T10:20:27;39.20;40.40
21275;DHT22;36472;52.170;20.884;2023-07-13T10:27:33;38.90;40.60
21275;DHT22;36472;52.170;20.884;2023-07-13T10:30:12;38.60;40.70
21275;DHT22;36472;52.170;20.884;2023-07-13T10:32:46;38.40;41.00
21275;DHT22;36472;52.170;20.884;2023-07-13T10:35:18;38.30;41.90
21275;DHT22;36472;52.170;20.884;2023-07-13T10:37:53;38.20;42.90
21275;DHT22;36472;52.170;20.884;2023-07-13T10:40:32;38.10;45.10
21275;DHT22;36472;52.170;20.884;2023-07-13T10:43:11;38.00;46.70
21275;DHT22;36472;52.170;20.884;2023-07-13T10:45:47;37.70;48.30
21275;DHT22;36472;52.170;20.884;2023-07-13T10:48:18;37.40;48.70
21275;DHT22;36472;52.170;20.884;2023-07-13T10:50:51;36.90;50.30
21275;DHT22;36472;52.170;20.884;2023-07-13T10:53:30;36.40;50.50
21275;DHT22;36472;52.170;20.884;2023-07-13T10:56:02;35.80;51.40
21275;DHT22;36472;52.170;20.884;2023-07-13T10:58:35;35.30;52.30
21275;DHT22;36472;52.170;20.884;2023-07-13T11:05:40;34.50;55.60
21275;DHT22;36472;52.170;20.884;2023-07-13T11:08:18;34.20;56.80
21275;DHT22;36472;52.170;20.884;2023-07-13T11:10:53;34.00;57.00
21275;DHT22;36472;52.170;20.884;2023-07-13T11:16:42;33.70;57.80
21275;DHT22;36472;52.170;20.884;2023-07-13T11:23:51;33.60;57.90
21275;DHT22;36472;52.170;20.884;2023-07-13T11:26:40;33.60;57.80
21275;DHT22;36472;52.170;20.884;2023-07-13T11:33:24;33.50;58.40
21275;DHT22;36472;52.170;20.884;2023-07-13T11:35:59;33.50;58.40
21275;DHT22;36472;52.170;20.884;2023-07-13T11:38:35;33.50;58.10
21275;DHT22;36472;52.170;20.884;2023-07-13T11:41:14;33.50;57.60
21275;DHT22;36472;52.170;20.884;2023-07-13T11:43:49;33.60;57.50
21275;DHT22;36472;52.170;20.884;2023-07-13T11:46:21;33.50;56.60
21275;DHT22;36472;52.170;20.884;2023-07-13T11:48:52;33.50;57.10
21275;DHT22;36472;52.170;20.884;2023-07-13T11:51:23;33.50;57.10
21275;DHT22;36472;52.170;20.884;2023-07-13T11:53:58;33.40;57.20
21275;DHT22;36472;52.170;20.884;2023-07-13T11:56:34;33.40;57.50
21275;DHT22;36472;52.170;20.884;2023-07-13T11:59:10;33.40;56.60
21275;DHT22;36472;52.170;20.884;2023-07-13T12:01:44;33.40;57.20
21275;DHT22;36472;52.170;20.884;2023-07-13T12:04:21;33.40;56.40
21275;DHT22;36472;52.170;20.884;2023-07-13T12:11:24;33.40;56.70
21275;DHT22;36472;52.170;20.884;2023-07-13T12:13:54;33.40;56.80
21275;DHT22;36472;52.170;20.884;2023-07-13T12:16:28;33.40;56.20
21275;DHT22;36472;52.170;20.884;2023-07-13T12:19:02;33.50;56.40
21275;DHT22;36472;52.170;20.884;2023-07-13T12:21:33;33.50;56.90
21275;DHT22;36472;52.170;20.884;2023-07-13T12:24:14;33.50;57.40
21275;DHT22;36472;52.170;20.884;2023-07-13T12:31:36;33.60;57.20
21275;DHT22;36472;52.170;20.884;2023-07-13T12:34:09;33.60;57.40
21275;DHT22;36472;52.170;20.884;2023-07-13T12:36:47;33.60;57.50
21275;DHT22;36472;52.170;20.884;2023-07-13T12:39:20;33.70;57.50
21275;DHT22;36472;52.170;20.884;2023-07-13T12:41:53;33.70;57.50
21275;DHT22;36472;52.170;20.884;2023-07-13T12:48:57;33.70;57.00
21275;DHT22;36472;52.170;20.884;2023-07-13T12:51:49;33.80;56.90
21275;DHT22;36472;52.170;20.884;2023-07-13T12:54:19;33.80;56.80
21275;DHT22;36472;52.170;20.884;2023-07-13T12:56:49;33.80;57.60
21275;DHT22;36472;52.170;20.884;2023-07-13T12:59:22;33.80;57.70
21275;DHT22;36472;52.170;20.884;2023-07-13T13:01:53;33.80;57.70
21275;DHT22;36472;52.170;20.884;2023-07-13T13:04:24;33.80;57.50
21275;DHT22;36472;52.170;20.884;2023-07-13T13:07:05;33.80;57.50
21275;DHT22;36472;52.170;20.884;2023-07-13T13:09:38;33.90;58.20
21275;DHT22;36472;52.170;20.884;2023-07-13T13:12:08;33.90;58.20
21275;DHT22;36472;52.170;20.884;2023-07-13T13:14:41;34.00;58.00
21275;DHT22;36472;52.170;20.884;2023-07-13T13:21:44;34.10;58.20
21275;DHT22;36472;52.170;20.884;2023-07-13T13:24:16;34.20;55.80
21275;DHT22;36472;52.170;20.884;2023-07-13T13:26:48;34.20;55.70
21275;DHT22;36472;52.170;20.884;2023-07-13T13:29:20;34.20;56.20
21275;DHT22;36472;52.170;20.884;2023-07-13T13:31:52;34.20;57.20
21275;DHT22;36472;52.170;20.884;2023-07-13T13:34:23;34.20;57.40
21275;DHT22;36472;52.170;20.884;2023-07-13T13:36:55;34.30;57.70
21275;DHT22;36472;52.170;20.884;2023-07-13T13:39:31;34.30;58.00
21275;DHT22;36472;52.170;20.884;2023-07-13T13:42:03;34.40;57.30
21275;DHT22;36472;52.170;20.884;2023-07-13T13:49:04;34.50;57.60
21275;DHT22;36472;52.170;20.884;2023-07-13T13:51:33;34.50;56.90
21275;DHT22;36472;52.170;20.884;2023-07-13T13:54:05;34.50;56.70
21275;DHT22;36472;52.170;20.884;2023-07-13T13:56:40;34.50;57.80
21275;DHT22;36472;52.170;20.884;2023-07-13T13:59:10;34.50;56.40
21275;DHT22;36472;52.170;20.884;2023-07-13T14:01:40;34.50;56.90
21275;DHT22;36472;52.170;20.884;2023-07-13T14:04:15;34.50;57.00
21275;DHT22;36472;52.170;20.884;2023-07-13T14:06:46;34.60;57.30
21275;DHT22;36472;52.170;20.884;2023-07-13T14:13:51;34.70;57.70
21275;DHT22;36472;52.170;20.884;2023-07-13T14:16:25;34.70;57.50
21275;DHT22;36472;52.170;20.884;2023-07-13T14:23:29;34.70;57.10
21275;DHT22;36472;52.170;20.884;2023-07-13T14:25:58;34.70;57.00
21275;DHT22;36472;52.170;20.884;2023-07-13T14:28:27;34.70;56.70
21275;DHT22;36472;52.170;20.884;2023-07-13T14:30:58;34.70;57.10
21275;DHT22;36472;52.170;20.884;2023-07-13T14:33:27;34.70;57.00
21275;DHT22;36472;52.170;20.884;2023-07-13T14:35:57;34.70;56.80
21275;DHT22;36472;52.170;20.884;2023-07-13T14:38:27;34.70;56.40
21275;DHT22;36472;52.170;20.884;2023-07-13T14:40:55;34.70;57.00
21275;DHT22;36472;52.170;20.884;2023-07-13T14:43:25;34.80;57.40
21275;DHT22;36472;52.170;20.884;2023-07-13T14:45:58;34.80;57.50
21275;DHT22;36472;52.170;20.884;2023-07-13T14:48:27;34.90;57.60
21275;DHT22;36472;52.170;20.884;2023-07-13T14:50:57;34.90;57.00
21275;DHT22;36472;52.170;20.884;2023-07-13T14:53:28;34.90;56.80
21275;DHT22;36472;52.170;20.884;2023-07-13T14:55:57;34.90;56.50
21275;DHT22;36472;52.170;20.884;2023-07-13T14:58:26;34.90;56.50
21275;DHT22;36472;52.170;20.884;2023-07-13T15:01:00;34.90;57.20
21275;DHT22;36472;52.170;20.884;2023-07-13T15:03:29;34.90;57.00
21275;DHT22;36472;52.170;20.884;2023-07-13T15:05:59;34.90;57.30
21275;DHT22;36472;52.170;20.884;2023-07-13T15:08:28;34.90;57.10
21275;DHT22;36472;52.170;20.884;2023-07-13T15:10:57;34.90;57.10
21275;DHT22;36472;52.170;20.884;2023-07-13T15:13:27;35.00;57.30
21275;DHT22;36472;52.170;20.884;2023-07-13T15:15:58;34.90;57.20
21275;DHT22;36472;52.170;20.884;2023-07-13T15:18:28;34.90;57.10
21275;DHT22;36472;52.170;20.884;2023-07-13T15:20:57;35.00;57.20
21275;DHT22;36472;52.170;20.884;2023-07-13T15:28:02;35.00;57.60
21275;DHT22;36472;52.170;20.884;2023-07-13T15:30:38;35.00;56.90
21275;DHT22;36472;52.170;20.884;2023-07-13T15:33:14;35.00;56.60
21275;DHT22;36472;52.170;20.884;2023-07-13T15:35:45;35.00;56.60
21275;DHT22;36472;52.170;20.884;2023-07-13T15:42:48;35.00;57.20
21275;DHT22;36472;52.170;20.884;2023-07-13T15:45:19;34.90;57.20
21275;DHT22;36472;52.170;20.884;2023-07-13T15:47:50;34.90;57.60
21275;DHT22;36472;52.170;20.884;2023-07-13T15:50:22;34.90;57.00
21275;DHT22;36472;52.170;20.884;2023-07-13T15:52:55;34.90;57.30
21275;DHT22;36472;52.170;20.884;2023-07-13T15:55:38;34.90;57.10
21275;DHT22;36472;52.170;20.884;2023-07-13T15:58:11;34.90;56.90
21275;DHT22;36472;52.170;20.884;2023-07-13T16:00:43;35.00;56.90
21275;DHT22;36472;52.170;20.884;2023-07-13T16:03:12;35.00;57.30
21275;DHT22;36472;52.170;20.884;2023-07-13T16:05:43;35.00;57.40
21275;DHT22;36472;52.170;20.884;2023-07-13T16:08:22;35.00;57.70
21275;DHT22;36472;52.170;20.884;2023-07-13T16:10:55;35.00;57.50
21275;DHT22;36472;52.170;20.884;2023-07-13T16:17:56;35.00;57.40
21275;DHT22;36472;52.170;20.884;2023-07-13T16:20:25;35.00;57.10
21275;DHT22;36472;52.170;20.884;2023-07-13T16:22:57;35.00;57.50
21275;DHT22;36472;52.170;20.884;2023-07-13T16:25:26;35.00;57.40
21275;DHT22;36472;52.170;20.884;2023-07-13T16:27:58;35.10;56.80
21275;DHT22;36472;52.170;20.884;2023-07-13T16:30:29;35.00;57.70
21275;DHT22;36472;52.170;20.884;2023-07-13T16:33:02;35.10;57.60
21275;DHT22;36472;52.170;20.884;2023-07-13T16:35:34;35.10;57.30
21275;DHT22;36472;52.170;20.884;2023-07-13T16:38:14;35.10;57.00
21275;DHT22;36472;52.170;20.884;2023-07-13T16:45:19;35.10;56.90
21275;DHT22;36472;52.170;20.884;2023-07-13T16:47:52;35.10;57.20
21275;DHT22;36472;52.170;20.884;2023-07-13T16:50:24;35.10;56.50
21275;DHT22;36472;52.170;20.884;2023-07-13T16:52:54;35.10;56.20
21275;DHT22;36472;52.170;20.884;2023-07-13T16:55:27;35.10;56.40
21275;DHT22;36472;52.170;20.884;2023-07-13T16:57:58;35.20;56.80
21275;DHT22;36472;52.170;20.884;2023-07-13T17:00:32;35.10;56.60
21275;DHT22;36472;52.170;20.884;2023-07-13T17:03:05;35.10;56.70
21275;DHT22;36472;52.170;20.884;2023-07-13T17:05:37;35.10;56.40
21275;DHT22;36472;52.170;20.884;2023-07-13T17:08:13;35.10;56.30
21275;DHT22;36472;52.170;20.884;2023-07-13T17:10:49;35.10;56.50
21275;DHT22;36472;52.170;20.884;2023-07-13T17:13:22;35.10;56.80
21275;DHT22;36472;52.170;20.884;2023-07-13T17:15:54;35.10;57.00
21275;DHT22;36472;52.170;20.884;2023-07-13T17:18:26;35.10;57.00
21275;DHT22;36472;52.170;20.884;2023-07-13T17:25:36;35.10;56.70
21275;DHT22;36472;52.170;20.884;2023-07-13T17:28:08;35.20;57.30
21275;DHT22;36472;52.170;20.884;2023-07-13T17:30:39;35.20;56.80
21275;DHT22;36472;52.170;20.884;2023-07-13T17:33:27;35.10;56.60
21275;DHT22;36472;52.170;20.884;2023-07-13T17:35:59;35.20;56.40
21275;DHT22;36472;52.170;20.884;2023-07-13T17:38:31;35.10;56.60
21275;DHT22;36472;52.170;20.884;2023-07-13T17:41:05;35.10;56.30
21275;DHT22;36472;52.170;20.884;2023-07-13T17:48:09;35.10;56.40
21275;DHT22;36472;52.170;20.884;2023-07-13T17:50:39;35.10;56.50
21275;DHT22;36472;52.170;20.884;2023-07-13T17:53:14;35.10;56.20
21275;DHT22;36472;52.170;20.884;2023-07-13T17:55:44;35.00;56.30
21275;DHT22;36472;52.170;20.884;2023-07-13T17:58:15;35.00;56.30
21275;DHT22;36472;52.170;20.884;2023-07-13T18:00:45;35.00;56.20
21275;DHT22;36472;52.170;20.884;2023-07-13T18:07:50;35.00;56.00